Time;durP1;ratioP1;P1;durP2;ratioP2;P2;SDS_P1;SDS_P2;PMS_P1;PMS_P2;Temp;Humidity;BMP_temperature;BMP_pressure;BME280_temperature;BME280_humidity;BME280_pressure;Samples;Min_cycle;Max_cycle;Signal;HPM_P1;HPM_P2
2023/10/28 00:02:14;;;;;;;;;;;19.00;69.90;;;;;;7394872;19;2008;-62
2023/10/28 00:04:40;;;;;;;;;;;19.00;69.80;;;;;;7398610;19;1761;-62
2023/10/28 00:07:05;;;;;;;;;;;19.00;69.80;;;;;;7393502;19;4232;-62
2023/10/28 00:09:31;;;;;;;;;;;18.90;70.10;;;;;;7391495;19;2962;-62
2023/10/28 00:11:56;;;;;;;;;;;18.90;69.90;;;;;;7394483;19;2412;-62
2023/10/28 00:14:23;;;;;;;;;;;18.90;69.80;;;;;;7393909;19;4411;-62
2023/10/28 00:16:49;;;;;;;;;;;18.90;70.00;;;;;;7395569;19;1640;-62
2023/10/28 00:19:16;;;;;;;;;;;18.90;69.80;;;;;;7395289;19;1826;-62
2023/10/28 00:21:41;;;;;;;;;;;18.90;69.70;;;;;;7392644;19;4624;-62
2023/10/28 00:24:07;;;;;;;;;;;18.90;69.70;;;;;;7395906;19;1914;-62
2023/10/28 00:26:34;;;;;;;;;;;18.90;69.70;;;;;;7395883;19;3687;-62
2023/10/28 00:28:59;;;;;;;;;;;18.80;69.60;;;;;;7396823;19;2899;-62
2023/10/28 00:31:24;;;;;;;;;;;18.80;69.90;;;;;;7394586;19;1717;-63
2023/10/28 00:33:51;;;;;;;;;;;18.80;69.80;;;;;;7390966;19;3958;-62
2023/10/28 00:36:17;;;;;;;;;;;18.80;69.80;;;;;;7394477;19;3321;-63
2023/10/28 00:38:42;;;;;;;;;;;18.80;69.70;;;;;;7392578;19;820;-63
2023/10/28 00:41:08;;;;;;;;;;;18.80;69.70;;;;;;7393234;19;3638;-63
2023/10/28 00:43:34;;;;;;;;;;;18.80;69.80;;;;;;7395598;19;3271;-62
2023/10/28 00:46:00;;;;;;;;;;;18.80;69.60;;;;;;7393105;19;1646;-62
2023/10/28 00:48:26;;;;;;;;;;;18.80;69.90;;;;;;7391918;19;3850;-62
2023/10/28 00:50:54;;;;;;;;;;;18.70;69.80;;;;;;7400677;19;3250;-62
2023/10/28 00:53:20;;;;;;;;;;;18.70;69.70;;;;;;7401983;19;1864;-62
2023/10/28 00:55:45;;;;;;;;;;;18.70;69.50;;;;;;7400401;19;3758;-62
2023/10/28 00:58:11;;;;;;;;;;;18.70;69.80;;;;;;7402195;19;3341;-62
2023/10/28 01:00:37;;;;;;;;;;;18.70;69.70;;;;;;7401884;19;1448;-63
2023/10/28 01:03:03;;;;;;;;;;;18.70;69.70;;;;;;7400172;19;3831;-62
2023/10/28 01:05:30;;;;;;;;;;;18.70;70.00;;;;;;7403935;19;3242;-63
2023/10/28 01:07:58;;;;;;;;;;;18.60;69.80;;;;;;7397119;19;1739;-62
2023/10/28 01:10:27;;;;;;;;;;;18.70;69.60;;;;;;7400509;19;2021;-62
2023/10/28 01:12:52;;;;;;;;;;;18.70;69.40;;;;;;7396690;19;1826;-62
2023/10/28 01:15:18;;;;;;;;;;;18.70;69.30;;;;;;7401122;19;1555;-62
2023/10/28 01:17:43;;;;;;;;;;;18.80;69.10;;;;;;7397226;19;3871;-63
2023/10/28 01:20:10;;;;;;;;;;;18.90;68.90;;;;;;7401829;19;3518;-62
2023/10/28 01:22:36;;;;;;;;;;;18.90;68.50;;;;;;7398604;19;1699;-62
2023/10/28 01:25:01;;;;;;;;;;;19.10;68.50;;;;;;7398760;19;3890;-62
2023/10/28 01:27:27;;;;;;;;;;;19.30;68.00;;;;;;7398487;19;868;-62
2023/10/28 01:29:52;;;;;;;;;;;19.80;66.90;;;;;;7399495;19;1769;-62
2023/10/28 01:32:18;;;;;;;;;;;20.20;65.80;;;;;;7397615;19;3842;-62
2023/10/28 01:34:49;;;;;;;;;;;20.70;64.80;;;;;;7402627;19;1812;-62
2023/10/28 01:37:18;;;;;;;;;;;21.10;63.10;;;;;;7399671;19;1744;-62
2023/10/28 01:39:44;;;;;;;;;;;21.50;61.90;;;;;;7398211;19;1755;-62
2023/10/28 01:42:13;;;;;;;;;;;21.80;60.60;;;;;;7399510;19;3691;-62
2023/10/28 01:44:39;;;;;;;;;;;22.10;59.70;;;;;;7400873;19;2909;-62
2023/10/28 01:47:04;;;;;;;;;;;22.30;59.20;;;;;;7399167;19;3256;-62
2023/10/28 01:49:31;;;;;;;;;;;22.30;59.60;;;;;;7400661;19;1632;-62
2023/10/28 01:51:56;;;;;;;;;;;22.40;58.90;;;;;;7395314;19;1848;-62
2023/10/28 01:54:22;;;;;;;;;;;22.40;58.70;;;;;;7399626;19;3756;-63
2023/10/28 01:56:47;;;;;;;;;;;22.40;58.80;;;;;;7399995;19;1805;-62
2023/10/28 01:59:12;;;;;;;;;;;22.20;59.00;;;;;;7399629;19;1852;-62
2023/10/28 02:01:38;;;;;;;;;;;22.00;59.40;;;;;;7396883;19;5216;-62
2023/10/28 02:04:06;;;;;;;;;;;21.90;59.90;;;;;;7401821;19;1708;-62
2023/10/28 02:06:32;;;;;;;;;;;21.70;60.10;;;;;;7399940;19;1772;-62
2023/10/28 02:08:57;;;;;;;;;;;21.70;60.60;;;;;;7396045;19;4249;-62
2023/10/28 02:11:23;;;;;;;;;;;21.60;60.80;;;;;;7397384;19;1815;-62
2023/10/28 02:13:49;;;;;;;;;;;21.50;61.00;;;;;;7396707;19;1890;-62
2023/10/28 02:16:15;;;;;;;;;;;21.50;61.30;;;;;;7396790;19;3651;-62
2023/10/28 02:18:40;;;;;;;;;;;21.40;61.50;;;;;;7399991;19;1661;-62
2023/10/28 02:21:06;;;;;;;;;;;21.30;61.80;;;;;;7399416;19;1553;-62
2023/10/28 02:23:32;;;;;;;;;;;21.20;62.30;;;;;;7395609;19;3339;-62
2023/10/28 02:25:57;;;;;;;;;;;21.10;62.50;;;;;;7399663;19;1640;-62
2023/10/28 02:28:23;;;;;;;;;;;21.00;62.90;;;;;;7398355;19;1763;-62
2023/10/28 02:30:49;;;;;;;;;;;20.90;63.20;;;;;;7394233;19;2950;-62
2023/10/28 02:33:14;;;;;;;;;;;20.80;63.30;;;;;;7397218;19;1845;-62
2023/10/28 02:35:40;;;;;;;;;;;20.80;63.60;;;;;;7395914;19;1606;-62
2023/10/28 02:38:05;;;;;;;;;;;20.70;63.90;;;;;;7392417;19;4041;-62
2023/10/28 02:40:31;;;;;;;;;;;20.70;64.00;;;;;;7398010;19;1879;-62
2023/10/28 02:42:56;;;;;;;;;;;20.70;64.10;;;;;;7398779;19;1783;-62
2023/10/28 02:45:22;;;;;;;;;;;20.60;64.30;;;;;;7393511;19;3863;-62
2023/10/28 02:47:49;;;;;;;;;;;20.60;64.40;;;;;;7400139;19;1651;-62
2023/10/28 02:50:15;;;;;;;;;;;20.50;64.30;;;;;;7397525;19;864;-62
2023/10/28 02:52:40;;;;;;;;;;;20.50;64.60;;;;;;7395624;19;1850;-62
2023/10/28 02:55:06;;;;;;;;;;;20.50;64.70;;;;;;7397643;19;1672;-62
2023/10/28 02:57:32;;;;;;;;;;;20.40;64.50;;;;;;7397784;19;1662;-62
2023/10/28 02:59:57;;;;;;;;;;;20.40;64.30;;;;;;7397334;19;4477;-62
2023/10/28 03:02:23;;;;;;;;;;;20.40;64.70;;;;;;7398281;19;1715;-62
2023/10/28 03:04:48;;;;;;;;;;;20.40;64.80;;;;;;7398535;19;1578;-62
2023/10/28 03:07:14;;;;;;;;;;;20.30;65.00;;;;;;7389588;19;4072;-63
2023/10/28 03:09:40;;;;;;;;;;;20.30;64.60;;;;;;7396425;19;1866;-62
2023/10/28 03:12:05;;;;;;;;;;;20.30;65.10;;;;;;7394350;19;1841;-62
2023/10/28 03:14:31;;;;;;;;;;;20.30;65.00;;;;;;7396658;19;4528;-62
2023/10/28 03:16:56;;;;;;;;;;;20.30;65.00;;;;;;7398114;19;1729;-62
2023/10/28 03:19:22;;;;;;;;;;;20.30;65.10;;;;;;7400148;19;1686;-62
2023/10/28 03:21:47;;;;;;;;;;;20.30;65.00;;;;;;7396278;19;3896;-63
2023/10/28 03:24:13;;;;;;;;;;;20.40;65.00;;;;;;7397641;19;1630;-62
2023/10/28 03:26:38;;;;;;;;;;;20.40;64.80;;;;;;7399938;19;1943;-62
2023/10/28 03:29:04;;;;;;;;;;;20.50;64.70;;;;;;7392882;19;3824;-63
2023/10/28 03:31:29;;;;;;;;;;;20.60;64.50;;;;;;7397795;19;1753;-62
2023/10/28 03:33:55;;;;;;;;;;;20.70;64.20;;;;;;7394948;19;1849;-63
2023/10/28 03:36:21;;;;;;;;;;;20.70;64.00;;;;;;7393295;19;3902;-62
2023/10/28 03:38:46;;;;;;;;;;;20.70;63.80;;;;;;7397520;19;1772;-62
2023/10/28 03:41:12;;;;;;;;;;;20.80;63.80;;;;;;7396902;19;1742;-62
2023/10/28 03:43:38;;;;;;;;;;;20.80;63.50;;;;;;7395095;19;3836;-62
2023/10/28 03:46:03;;;;;;;;;;;20.80;63.50;;;;;;7396093;19;1711;-62
2023/10/28 03:48:29;;;;;;;;;;;20.80;63.50;;;;;;7395277;19;1100;-62
2023/10/28 03:50:58;;;;;;;;;;;20.90;63.50;;;;;;7395774;19;1889;-63
2023/10/28 03:53:23;;;;;;;;;;;20.90;63.50;;;;;;7395487;19;1845;-62
2023/10/28 03:55:48;;;;;;;;;;;20.90;63.50;;;;;;7397381;19;1440;-62
2023/10/28 03:58:14;;;;;;;;;;;20.80;63.50;;;;;;7395992;19;4312;-62
2023/10/28 04:00:40;;;;;;;;;;;20.80;63.60;;;;;;7395178;19;1689;-63
2023/10/28 04:03:05;;;;;;;;;;;20.70;63.60;;;;;;7393024;19;3634;-62
2023/10/28 04:05:31;;;;;;;;;;;20.70;63.90;;;;;;7390490;19;4647;-62
2023/10/28 04:07:56;;;;;;;;;;;20.60;63.50;;;;;;7396150;19;1663;-62
2023/10/28 04:10:23;;;;;;;;;;;20.60;64.10;;;;;;7396010;19;1853;-62
2023/10/28 04:12:48;;;;;;;;;;;20.60;64.10;;;;;;7392325;19;2894;-63
2023/10/28 04:15:16;;;;;;;;;;;20.60;64.10;;;;;;7395200;19;1909;-62
2023/10/28 04:17:42;;;;;;;;;;;20.60;64.60;;;;;;7395963;19;1929;-62
2023/10/28 04:20:07;;;;;;;;;;;20.60;63.90;;;;;;7392326;19;4262;-62
2023/10/28 04:22:33;;;;;;;;;;;20.60;64.00;;;;;;7393286;19;1880;-63
2023/10/28 04:24:58;;;;;;;;;;;20.60;64.00;;;;;;7397602;19;3802;-62
2023/10/28 04:27:24;;;;;;;;;;;20.60;63.80;;;;;;7402626;19;3204;-62
2023/10/28 04:29:50;;;;;;;;;;;20.60;64.20;;;;;;7402948;19;1768;-62
2023/10/28 04:32:20;;;;;;;;;;;20.50;64.20;;;;;;7401958;19;2086;-62
2023/10/28 04:34:45;;;;;;;;;;;20.50;64.40;;;;;;7405931;19;1738;-62
2023/10/28 04:37:11;;;;;;;;;;;20.40;64.30;;;;;;7399850;19;4141;-62
2023/10/28 04:39:36;;;;;;;;;;;20.40;64.50;;;;;;7401592;19;3762;-62
2023/10/28 04:42:02;;;;;;;;;;;20.40;64.60;;;;;;7403214;19;3115;-62
2023/10/28 04:44:28;;;;;;;;;;;20.40;64.60;;;;;;7401875;19;1997;-62
2023/10/28 04:46:53;;;;;;;;;;;20.40;64.80;;;;;;7400074;19;3775;-62
2023/10/28 04:49:18;;;;;;;;;;;20.40;64.40;;;;;;7404820;19;3255;-62
2023/10/28 04:51:44;;;;;;;;;;;20.40;64.40;;;;;;7403764;19;1834;-62
2023/10/28 04:54:09;;;;;;;;;;;20.40;64.70;;;;;;7400923;19;3853;-62
2023/10/28 04:56:35;;;;;;;;;;;20.40;64.70;;;;;;7402404;19;3283;-62
2023/10/28 04:59:00;;;;;;;;;;;20.40;64.50;;;;;;7399423;19;1451;-62
2023/10/28 05:01:26;;;;;;;;;;;20.50;64.60;;;;;;7400754;19;1594;-63
2023/10/28 05:03:51;;;;;;;;;;;20.50;64.50;;;;;;7398837;19;1250;-62
2023/10/28 05:06:16;;;;;;;;;;;20.50;64.30;;;;;;7400368;19;1727;-62
2023/10/28 05:08:42;;;;;;;;;;;20.60;65.10;;;;;;7400403;19;3916;-62
2023/10/28 05:11:08;;;;;;;;;;;20.60;64.20;;;;;;7400316;19;3331;-62
2023/10/28 05:13:34;;;;;;;;;;;20.60;64.10;;;;;;7397059;19;1838;-62
2023/10/28 05:15:59;;;;;;;;;;;20.60;64.10;;;;;;7402001;19;1658;-62
2023/10/28 05:18:25;;;;;;;;;;;20.60;64.10;;;;;;7399149;19;1054;-62
2023/10/28 05:20:53;;;;;;;;;;;20.60;64.10;;;;;;7400388;19;1769;-62
2023/10/28 05:23:19;;;;;;;;;;;20.60;64.00;;;;;;7399840;19;4404;-62
2023/10/28 05:25:44;;;;;;;;;;;20.60;64.40;;;;;;7402977;19;3554;-63
2023/10/28 05:28:10;;;;;;;;;;;20.70;63.90;;;;;;7403010;19;1665;-62
2023/10/28 05:30:36;;;;;;;;;;;20.70;63.70;;;;;;7401374;19;2073;-62
2023/10/28 05:33:01;;;;;;;;;;;20.70;63.90;;;;;;7397514;19;1850;-62
2023/10/28 05:35:26;;;;;;;;;;;20.70;63.70;;;;;;7397601;19;1734;-63
2023/10/28 05:37:52;;;;;;;;;;;20.70;63.60;;;;;;7396725;19;3979;-63
2023/10/28 05:40:17;;;;;;;;;;;20.70;63.70;;;;;;7400946;19;3261;-62
2023/10/28 05:42:43;;;;;;;;;;;20.70;63.70;;;;;;7401162;19;1761;-62
2023/10/28 05:45:10;;;;;;;;;;;20.70;63.70;;;;;;7397663;19;1711;-63
2023/10/28 05:47:35;;;;;;;;;;;20.70;63.50;;;;;;7403495;19;1662;-62
2023/10/28 05:50:07;;;;;;;;;;;20.70;63.70;;;;;;7403108;19;1719;-62
2023/10/28 05:52:38;;;;;;;;;;;20.70;63.50;;;;;;7395838;19;3902;-62
2023/10/28 05:55:04;;;;;;;;;;;20.60;63.60;;;;;;7401822;19;3318;-62
2023/10/28 05:57:29;;;;;;;;;;;20.60;63.80;;;;;;7400092;19;1853;-62
2023/10/28 05:59:55;;;;;;;;;;;20.60;63.80;;;;;;7397054;19;4139;-62
2023/10/28 06:02:20;;;;;;;;;;;20.50;63.70;;;;;;7393786;19;3369;-63
2023/10/28 06:04:46;;;;;;;;;;;20.50;63.90;;;;;;7400698;19;1961;-62
2023/10/28 06:07:11;;;;;;;;;;;20.40;63.80;;;;;;7393449;19;5268;-63
2023/10/28 06:09:37;;;;;;;;;;;20.40;64.00;;;;;;7400312;19;1799;-62
2023/10/28 06:12:02;;;;;;;;;;;20.40;64.10;;;;;;7397691;19;3975;-62
2023/10/28 06:14:27;;;;;;;;;;;20.40;63.80;;;;;;7395126;19;4262;-63
2023/10/28 06:16:53;;;;;;;;;;;20.40;64.20;;;;;;7399877;19;1694;-62
2023/10/28 06:19:21;;;;;;;;;;;20.40;64.00;;;;;;7396833;19;1697;-62
2023/10/28 06:21:47;;;;;;;;;;;20.40;64.10;;;;;;7395185;19;3678;-62
2023/10/28 06:24:12;;;;;;;;;;;20.40;64.00;;;;;;7392025;19;983;-62
2023/10/28 06:26:39;;;;;;;;;;;20.50;63.80;;;;;;7400948;19;1479;-62
2023/10/28 06:29:05;;;;;;;;;;;20.50;64.00;;;;;;7394276;19;1123;-63
2023/10/28 06:31:31;;;;;;;;;;;20.60;63.90;;;;;;7397615;19;1755;-62
2023/10/28 06:33:57;;;;;;;;;;;20.60;63.80;;;;;;7395503;19;1839;-62
2023/10/28 06:36:22;;;;;;;;;;;20.60;63.60;;;;;;7396126;19;4566;-62
2023/10/28 06:38:48;;;;;;;;;;;20.70;63.30;;;;;;7398252;19;1746;-63
2023/10/28 06:41:13;;;;;;;;;;;20.70;63.70;;;;;;7396936;19;1831;-63
2023/10/28 06:43:39;;;;;;;;;;;20.70;63.50;;;;;;7401990;19;2151;-62
2023/10/28 06:46:04;;;;;;;;;;;20.70;63.50;;;;;;7394158;19;2950;-62
2023/10/28 06:48:30;;;;;;;;;;;20.70;63.40;;;;;;7400320;19;3599;-62
2023/10/28 06:50:55;;;;;;;;;;;20.70;63.30;;;;;;7394926;19;3435;-61
2023/10/28 06:53:21;;;;;;;;;;;20.70;63.60;;;;;;7398756;19;1899;-64
2023/10/28 06:55:48;;;;;;;;;;;20.70;63.60;;;;;;7400511;19;1632;-63
2023/10/28 06:58:15;;;;;;;;;;;20.70;63.50;;;;;;7396837;19;1446;-63
2023/10/28 07:00:41;;;;;;;;;;;20.70;63.60;;;;;;7391595;19;4020;-61
2023/10/28 07:03:06;;;;;;;;;;;20.70;63.40;;;;;;7397284;19;4680;-62
2023/10/28 07:05:32;;;;;;;;;;;20.70;63.40;;;;;;7394332;19;4240;-62
2023/10/28 07:07:57;;;;;;;;;;;20.70;63.50;;;;;;7396621;19;859;-63
2023/10/28 07:10:22;;;;;;;;;;;20.70;63.50;;;;;;7393593;19;1481;-62
2023/10/28 07:12:49;;;;;;;;;;;20.70;63.30;;;;;;7394287;19;3889;-62
2023/10/28 07:15:15;;;;;;;;;;;20.60;63.30;;;;;;7395105;19;1559;-62
2023/10/28 07:17:40;;;;;;;;;;;20.60;63.80;;;;;;7394297;19;1010;-63
2023/10/28 07:20:07;;;;;;;;;;;20.60;63.60;;;;;;7394266;19;3384;-62
2023/10/28 07:22:33;;;;;;;;;;;20.60;63.60;;;;;;7394714;19;2141;-62
2023/10/28 07:24:58;;;;;;;;;;;20.70;63.60;;;;;;7397542;19;2026;-62
2023/10/28 07:27:23;;;;;;;;;;;20.70;63.50;;;;;;7396302;19;1871;-62
2023/10/28 07:29:49;;;;;;;;;;;20.70;63.40;;;;;;7397732;19;1659;-62
2023/10/28 07:32:14;;;;;;;;;;;20.70;63.40;;;;;;7396521;19;1837;-62
2023/10/28 07:34:40;;;;;;;;;;;20.70;63.40;;;;;;7395258;19;3434;-62
2023/10/28 07:37:08;;;;;;;;;;;20.70;63.60;;;;;;7393841;19;1890;-62
2023/10/28 07:39:34;;;;;;;;;;;20.70;63.40;;;;;;7396528;19;1738;-62
2023/10/28 07:42:00;;;;;;;;;;;20.70;63.50;;;;;;7395578;19;4666;-62
2023/10/28 07:44:25;;;;;;;;;;;20.70;63.70;;;;;;7394729;19;1988;-62
2023/10/28 07:46:51;;;;;;;;;;;20.70;63.30;;;;;;7396234;19;1685;-62
2023/10/28 07:49:16;;;;;;;;;;;20.70;63.70;;;;;;7391172;19;3845;-62
2023/10/28 07:51:42;;;;;;;;;;;20.70;63.50;;;;;;7393385;19;1692;-62
2023/10/28 07:54:08;;;;;;;;;;;20.60;63.50;;;;;;7395233;19;1933;-62
2023/10/28 07:56:33;;;;;;;;;;;20.70;63.80;;;;;;7396015;19;1619;-62
2023/10/28 07:59:02;;;;;;;;;;;20.70;63.60;;;;;;7398014;19;1642;-62
2023/10/28 08:01:27;;;;;;;;;;;20.70;63.50;;;;;;7396136;19;3847;-62
2023/10/28 08:03:53;;;;;;;;;;;20.70;63.60;;;;;;7394825;19;3321;-62
2023/10/28 08:06:19;;;;;;;;;;;20.70;63.40;;;;;;7395027;19;4098;-62
2023/10/28 08:08:45;;;;;;;;;;;20.60;63.50;;;;;;7395803;19;4081;-63
2023/10/28 08:11:11;;;;;;;;;;;20.70;63.60;;;;;;7395137;19;3243;-63
2023/10/28 08:13:37;;;;;;;;;;;20.70;63.80;;;;;;7396624;19;2169;-61
2023/10/28 08:16:03;;;;;;;;;;;20.70;63.40;;;;;;7391906;19;3841;-62
2023/10/28 08:18:30;;;;;;;;;;;20.70;63.60;;;;;;7394209;19;3629;-62
2023/10/28 08:20:56;;;;;;;;;;;20.70;63.60;;;;;;7395345;19;3197;-62
2023/10/28 08:23:21;;;;;;;;;;;20.70;63.60;;;;;;7393103;19;4718;-62
2023/10/28 08:25:47;;;;;;;;;;;20.70;63.50;;;;;;7394872;19;3332;-62
2023/10/28 08:28:12;;;;;;;;;;;20.60;63.50;;;;;;7396504;19;1801;-62
2023/10/28 08:30:38;;;;;;;;;;;20.60;63.70;;;;;;7391514;19;4231;-62
2023/10/28 08:33:03;;;;;;;;;;;20.60;63.60;;;;;;7394825;19;2885;-62
2023/10/28 08:35:29;;;;;;;;;;;20.60;63.40;;;;;;7395273;19;1871;-63
2023/10/28 08:37:54;;;;;;;;;;;20.70;63.60;;;;;;7395815;19;1912;-62
2023/10/28 08:40:20;;;;;;;;;;;20.70;63.50;;;;;;7395879;19;1611;-62
2023/10/28 08:42:45;;;;;;;;;;;20.70;63.40;;;;;;7393958;19;1665;-62
2023/10/28 08:45:11;;;;;;;;;;;20.70;63.30;;;;;;7393887;19;3952;-62
2023/10/28 08:47:36;;;;;;;;;;;20.70;63.20;;;;;;7393441;19;2859;-62
2023/10/28 08:50:06;;;;;;;;;;;20.80;63.20;;;;;;7391364;19;1733;-62
2023/10/28 08:52:32;;;;;;;;;;;20.80;63.20;;;;;;7393747;19;1855;-62
2023/10/28 08:54:58;;;;;;;;;;;20.70;63.30;;;;;;7395094;19;1845;-62
2023/10/28 08:57:24;;;;;;;;;;;20.80;63.30;;;;;;7395695;19;1672;-62
2023/10/28 08:59:50;;;;;;;;;;;20.80;63.30;;;;;;7390950;19;2945;-62
2023/10/28 09:02:15;;;;;;;;;;;20.80;63.30;;;;;;7395143;19;1756;-62
2023/10/28 09:04:41;;;;;;;;;;;20.80;63.20;;;;;;7394359;19;1642;-62
2023/10/28 09:07:07;;;;;;;;;;;20.80;62.90;;;;;;7389167;19;4098;-62
2023/10/28 09:09:32;;;;;;;;;;;20.80;63.10;;;;;;7395867;19;1679;-62
2023/10/28 09:11:58;;;;;;;;;;;20.80;63.00;;;;;;7400607;19;1857;-62
2023/10/28 09:14:23;;;;;;;;;;;20.80;63.10;;;;;;7399532;19;4153;-62
2023/10/28 09:16:49;;;;;;;;;;;20.80;63.10;;;;;;7400758;19;1560;-62
2023/10/28 09:19:21;;;;;;;;;;;20.70;63.20;;;;;;7403805;19;1956;-62
2023/10/28 09:21:50;;;;;;;;;;;20.70;62.90;;;;;;7399070;19;1876;-63
2023/10/28 09:24:16;;;;;;;;;;;20.70;63.30;;;;;;7400864;19;1672;-62
2023/10/28 09:26:41;;;;;;;;;;;20.70;63.20;;;;;;7398925;19;3679;-62
2023/10/28 09:29:07;;;;;;;;;;;20.70;63.40;;;;;;7398488;19;3838;-62
2023/10/28 09:31:33;;;;;;;;;;;20.70;63.40;;;;;;7399223;19;3460;-63
2023/10/28 09:33:59;;;;;;;;;;;20.80;63.50;;;;;;7400784;19;1885;-62
2023/10/28 09:36:24;;;;;;;;;;;20.70;63.30;;;;;;7400161;19;1745;-62
2023/10/28 09:38:50;;;;;;;;;;;20.70;63.00;;;;;;7401674;19;1647;-63
2023/10/28 09:41:16;;;;;;;;;;;20.70;63.20;;;;;;7400647;19;1625;-62
2023/10/28 09:43:41;;;;;;;;;;;20.70;63.20;;;;;;7398011;19;3462;-63
2023/10/28 09:46:07;;;;;;;;;;;20.70;63.20;;;;;;7400007;19;2000;-61
2023/10/28 09:48:32;;;;;;;;;;;20.70;63.30;;;;;;7401338;19;1674;-62
2023/10/28 09:50:58;;;;;;;;;;;20.70;63.40;;;;;;7395929;19;4702;-62
2023/10/28 09:53:29;;;;;;;;;;;20.70;63.30;;;;;;7398387;19;1849;-62
2023/10/28 09:55:54;;;;;;;;;;;20.70;63.40;;;;;;7399458;19;1661;-62
2023/10/28 09:58:21;;;;;;;;;;;20.70;63.30;;;;;;7395402;19;4099;-62
2023/10/28 10:00:48;;;;;;;;;;;20.80;63.30;;;;;;7400630;19;1688;-62
2023/10/28 10:03:30;;;;;;;;;;;20.80;63.30;;;;;;7399593;19;1595;-62
2023/10/28 10:05:55;;;;;;;;;;;20.80;63.20;;;;;;7396173;19;3279;-62
2023/10/28 10:08:24;;;;;;;;;;;20.80;63.30;;;;;;7400761;19;2561;-63
2023/10/28 10:10:50;;;;;;;;;;;20.70;62.90;;;;;;7398585;19;1555;-62
2023/10/28 10:13:15;;;;;;;;;;;20.80;63.20;;;;;;7393630;19;4312;-62
2023/10/28 10:15:44;;;;;;;;;;;20.80;63.30;;;;;;7401253;19;2083;-63
2023/10/28 10:18:18;;;;;;;;;;;20.80;63.30;;;;;;7400572;19;1818;-62
2023/10/28 10:20:44;;;;;;;;;;;20.80;63.10;;;;;;7393591;19;3842;-63
2023/10/28 10:23:09;;;;;;;;;;;20.80;63.30;;;;;;7393515;19;1557;-62
2023/10/28 10:25:39;;;;;;;;;;;20.80;63.40;;;;;;7394497;19;1890;-62
2023/10/28 10:28:06;;;;;;;;;;;20.70;63.40;;;;;;7396142;19;4291;-62
2023/10/28 10:30:34;;;;;;;;;;;20.70;64.10;;;;;;7394303;19;1643;-63
2023/10/28 10:33:00;;;;;;;;;;;20.70;62.90;;;;;;7399345;19;1823;-62
2023/10/28 10:35:30;;;;;;;;;;;20.70;63.40;;;;;;7396224;19;4317;-62
2023/10/28 10:38:04;;;;;;;;;;;20.70;63.30;;;;;;7397377;19;1688;-64
2023/10/28 10:40:31;;;;;;;;;;;20.80;63.60;;;;;;7387554;19;5184;-64
2023/10/28 10:42:57;;;;;;;;;;;20.80;63.40;;;;;;7394961;19;3596;-63
2023/10/28 10:45:23;;;;;;;;;;;20.80;63.50;;;;;;7391896;19;3414;-62
2023/10/28 10:47:48;;;;;;;;;;;20.80;63.70;;;;;;7394070;19;4220;-62
2023/10/28 10:50:14;;;;;;;;;;;20.80;63.70;;;;;;7395762;19;3487;-63
2023/10/28 10:52:39;;;;;;;;;;;20.80;63.60;;;;;;7393661;19;3574;-63
2023/10/28 10:55:06;;;;;;;;;;;20.80;63.70;;;;;;7390526;19;4686;-63
2023/10/28 10:57:33;;;;;;;;;;;20.80;63.50;;;;;;7396140;19;3335;-63
2023/10/28 11:00:00;;;;;;;;;;;20.70;63.30;;;;;;7392912;19;4243;-63
2023/10/28 11:02:25;;;;;;;;;;;20.70;63.60;;;;;;7396202;19;3918;-64
2023/10/28 11:04:51;;;;;;;;;;;20.70;63.60;;;;;;7399907;19;2865;-64
2023/10/28 11:07:16;;;;;;;;;;;20.70;63.60;;;;;;7392188;19;3951;-63
2023/10/28 11:09:42;;;;;;;;;;;20.80;63.70;;;;;;7394879;19;3111;-64
2023/10/28 11:12:07;;;;;;;;;;;20.80;63.40;;;;;;7397189;19;2576;-63
2023/10/28 11:14:33;;;;;;;;;;;20.70;63.40;;;;;;7397603;19;1799;-64
2023/10/28 11:16:59;;;;;;;;;;;20.70;63.60;;;;;;7395388;19;1815;-63
2023/10/28 11:19:25;;;;;;;;;;;20.80;63.60;;;;;;7395291;19;3788;-64
2023/10/28 11:21:50;;;;;;;;;;;20.80;63.40;;;;;;7395610;19;3640;-63
2023/10/28 11:24:16;;;;;;;;;;;20.80;63.60;;;;;;7394184;19;3767;-63
2023/10/28 11:26:44;;;;;;;;;;;20.80;63.70;;;;;;7397823;19;2973;-64
2023/10/28 11:29:09;;;;;;;;;;;20.80;63.70;;;;;;7396613;19;1744;-63
2023/10/28 11:31:39;;;;;;;;;;;20.80;63.70;;;;;;7396112;19;1661;-63
2023/10/28 11:34:05;;;;;;;;;;;20.80;63.90;;;;;;7392701;19;4207;-63
2023/10/28 11:36:33;;;;;;;;;;;20.80;64.00;;;;;;7396161;19;1658;-63
2023/10/28 11:39:07;;;;;;;;;;;20.80;63.70;;;;;;7395479;19;5012;-64
2023/10/28 11:41:32;;;;;;;;;;;20.70;64.10;;;;;;7396046;19;1625;-64
2023/10/28 11:43:59;;;;;;;;;;;20.70;63.60;;;;;;7399407;19;1696;-63
2023/10/28 11:46:24;;;;;;;;;;;20.80;64.20;;;;;;7396256;19;1719;-64
2023/10/28 11:48:50;;;;;;;;;;;20.80;64.30;;;;;;7395755;19;1665;-64
2023/10/28 11:51:16;;;;;;;;;;;20.80;64.20;;;;;;7396251;19;1568;-64
2023/10/28 11:53:44;;;;;;;;;;;20.80;64.40;;;;;;7393992;19;5138;-64
2023/10/28 11:56:09;;;;;;;;;;;20.80;63.60;;;;;;7396765;19;1800;-64
2023/10/28 11:58:35;;;;;;;;;;;20.80;64.20;;;;;;7395354;19;1006;-63
2023/10/28 12:01:01;;;;;;;;;;;20.70;64.30;;;;;;7390972;19;3751;-65
2023/10/28 12:03:26;;;;;;;;;;;20.70;64.40;;;;;;7397236;19;1887;-64
2023/10/28 12:05:52;;;;;;;;;;;20.60;64.60;;;;;;7394348;19;1707;-65
2023/10/28 12:08:17;;;;;;;;;;;20.60;64.70;;;;;;7384515;19;3913;-63
2023/10/28 12:10:43;;;;;;;;;;;20.60;64.00;;;;;;7388866;19;3880;-64
2023/10/28 12:13:10;;;;;;;;;;;20.50;64.30;;;;;;7396103;19;1868;-64
2023/10/28 12:15:35;;;;;;;;;;;20.50;64.60;;;;;;7392037;19;3144;-65
2023/10/28 12:18:01;;;;;;;;;;;20.50;64.40;;;;;;7393342;19;1961;-63
2023/10/28 12:20:27;;;;;;;;;;;20.40;64.20;;;;;;7393566;19;867;-63
2023/10/28 12:22:52;;;;;;;;;;;20.40;64.70;;;;;;7391873;19;5684;-63
2023/10/28 12:25:18;;;;;;;;;;;20.40;64.90;;;;;;7393858;19;1730;-64
2023/10/28 12:27:44;;;;;;;;;;;20.40;64.90;;;;;;7389743;19;4154;-65
2023/10/28 12:30:09;;;;;;;;;;;20.40;65.10;;;;;;7381179;19;4885;-65
2023/10/28 12:32:35;;;;;;;;;;;20.40;65.00;;;;;;7388716;19;4877;-64
2023/10/28 12:35:00;;;;;;;;;;;20.40;64.50;;;;;;7392502;19;3512;-65
2023/10/28 12:37:26;;;;;;;;;;;20.50;65.80;;;;;;7392814;19;1761;-64
2023/10/28 12:39:52;;;;;;;;;;;20.50;65.60;;;;;;7386318;19;2166;-65
2023/10/28 12:42:17;;;;;;;;;;;20.50;65.30;;;;;;7387208;19;2071;-65
2023/10/28 12:44:43;;;;;;;;;;;20.60;65.30;;;;;;7393672;19;3669;-64
2023/10/28 12:47:08;;;;;;;;;;;20.70;65.20;;;;;;7402783;19;1748;-64
2023/10/28 12:49:33;;;;;;;;;;;20.70;65.20;;;;;;7402653;19;3739;-62
2023/10/28 12:52:00;;;;;;;;;;;20.80;65.00;;;;;;7393569;19;4702;-63
2023/10/28 12:54:27;;;;;;;;;;;20.90;65.10;;;;;;7398984;19;1675;-62
2023/10/28 12:56:53;;;;;;;;;;;20.90;64.90;;;;;;7393269;19;5672;-62
2023/10/28 12:59:19;;;;;;;;;;;21.00;64.70;;;;;;7402473;19;1383;-65
2023/10/28 13:01:45;;;;;;;;;;;21.00;64.90;;;;;;7400994;19;3142;-66
2023/10/28 13:04:10;;;;;;;;;;;21.00;64.80;;;;;;7402132;19;1220;-65
2023/10/28 13:06:36;;;;;;;;;;;21.00;64.90;;;;;;7393163;19;3245;-65
2023/10/28 13:09:05;;;;;;;;;;;21.10;64.70;;;;;;7401263;19;3568;-65
2023/10/28 13:11:30;;;;;;;;;;;21.10;64.80;;;;;;7395612;19;6080;-63
2023/10/28 13:13:55;;;;;;;;;;;21.10;65.00;;;;;;7397132;19;4265;-64
2023/10/28 13:16:21;;;;;;;;;;;21.10;65.00;;;;;;7398437;19;4350;-62
2023/10/28 13:18:46;;;;;;;;;;;21.10;65.00;;;;;;7401496;19;1984;-62
2023/10/28 13:21:14;;;;;;;;;;;21.00;64.80;;;;;;7391911;19;3908;-62
2023/10/28 13:23:41;;;;;;;;;;;21.00;64.80;;;;;;7397720;19;2039;-61
2023/10/28 13:26:13;;;;;;;;;;;21.10;65.30;;;;;;7400441;19;1693;-61
2023/10/28 13:28:38;;;;;;;;;;;21.00;65.20;;;;;;7397738;19;5497;-62
2023/10/28 13:31:04;;;;;;;;;;;21.10;65.20;;;;;;7402597;19;1534;-63
2023/10/28 13:33:29;;;;;;;;;;;21.00;65.10;;;;;;7396230;19;1851;-64
2023/10/28 13:35:55;;;;;;;;;;;21.00;64.90;;;;;;7398959;19;5607;-63
2023/10/28 13:38:21;;;;;;;;;;;21.10;64.50;;;;;;7398855;19;916;-63
2023/10/28 13:40:46;;;;;;;;;;;21.10;65.10;;;;;;7396672;19;1797;-64
2023/10/28 13:43:12;;;;;;;;;;;21.10;65.30;;;;;;7398842;19;5083;-63
2023/10/28 13:45:37;;;;;;;;;;;21.10;65.10;;;;;;7397600;19;1739;-63
2023/10/28 13:48:04;;;;;;;;;;;21.10;65.30;;;;;;7397585;19;777;-63
2023/10/28 13:50:30;;;;;;;;;;;21.10;65.20;;;;;;7398802;19;5275;-65
2023/10/28 13:52:55;;;;;;;;;;;21.10;65.60;;;;;;7395234;19;2893;-62
2023/10/28 13:55:21;;;;;;;;;;;21.10;65.60;;;;;;7398459;19;1910;-63
2023/10/28 13:57:47;;;;;;;;;;;21.10;65.70;;;;;;7399260;19;5549;-63
2023/10/28 14:00:13;;;;;;;;;;;21.10;65.40;;;;;;7397209;19;5144;-64
2023/10/28 14:02:38;;;;;;;;;;;21.00;65.30;;;;;;7391376;19;5342;-63
2023/10/28 14:05:04;;;;;;;;;;;21.00;65.40;;;;;;7386481;19;4757;-64
2023/10/28 14:07:30;;;;;;;;;;;21.00;66.30;;;;;;7390048;19;5653;-63
2023/10/28 14:09:56;;;;;;;;;;;21.00;66.50;;;;;;7391051;19;4755;-64
2023/10/28 14:12:23;;;;;;;;;;;20.90;65.90;;;;;;7395106;19;5003;-64
2023/10/28 14:14:49;;;;;;;;;;;20.90;66.30;;;;;;7396691;19;837;-63
2023/10/28 14:17:15;;;;;;;;;;;20.90;66.10;;;;;;7393613;19;5379;-63
2023/10/28 14:19:40;;;;;;;;;;;20.90;66.20;;;;;;7397009;19;3528;-65
2023/10/28 14:22:06;;;;;;;;;;;20.90;66.70;;;;;;7394779;19;817;-64
2023/10/28 14:24:31;;;;;;;;;;;20.90;66.60;;;;;;7397772;19;2154;-64